createdAt,value
2023-03-27T00:00:07.113Z,79.36
2023-03-27T00:01:07.218Z,80.58
2023-03-27T00:02:07.463Z,77.89
2023-03-27T00:03:07.528Z,76.68
2023-03-27T00:04:07.664Z,78.25
2023-03-27T00:05:07.719Z,79.21
2023-03-27T00:06:07.784Z,80.81
2023-03-27T00:07:07.893Z,80.89
2023-03-27T00:08:08.034Z,80.81
2023-03-27T00:09:08.181Z,80.81
2023-03-27T00:10:08.421Z,80.58
2023-03-27T00:11:08.502Z,80.19
2023-03-27T00:12:08.506Z,80.65
2023-03-27T00:13:08.581Z,80.35
2023-03-27T00:14:08.689Z,81.99
2023-03-27T00:15:08.821Z,82.07
2023-03-27T00:16:09.046Z,81.60
2023-03-27T00:17:09.044Z,81.60
2023-03-27T00:18:09.246Z,81.99
2023-03-27T00:19:09.248Z,81.44
2023-03-27T00:20:09.469Z,82.96
2023-03-27T00:21:09.495Z,82.47
2023-03-27T00:22:09.595Z,81.51
2023-03-27T00:23:09.718Z,81.36
2023-03-27T00:24:09.877Z,81.83
2023-03-27T00:25:10.002Z,81.51
2023-03-27T00:26:10.064Z,80.73
2023-03-27T00:27:10.178Z,81.04
2023-03-27T00:28:10.292Z,80.89
2023-03-27T00:29:10.431Z,80.81
2023-03-27T00:30:10.541Z,81.12
2023-03-27T00:31:10.906Z,81.75
2023-03-27T00:32:10.799Z,82.47
2023-03-27T00:33:10.894Z,81.60
2023-03-27T00:34:11.065Z,82.47
2023-03-27T00:35:11.104Z,82.31
2023-03-27T00:36:11.268Z,80.73
2023-03-27T00:37:11.341Z,81.36
2023-03-27T00:38:11.489Z,80.58
2023-03-27T00:39:11.639Z,79.51
2023-03-27T00:40:11.727Z,79.96
2023-03-27T00:41:11.885Z,81.20
2023-03-27T00:42:11.929Z,80.81
2023-03-27T00:43:12.049Z,79.44
2023-03-27T00:44:12.154Z,77.46
2023-03-27T00:45:12.311Z,77.10
2023-03-27T00:46:12.474Z,77.32
2023-03-27T00:47:12.524Z,77.18
2023-03-27T00:48:12.622Z,77.18
2023-03-27T00:49:12.812Z,78.62
2023-03-27T00:50:12.851Z,79.44
2023-03-27T00:51:13.037Z,80.65
2023-03-27T00:52:13.088Z,80.04
2023-03-27T00:53:13.188Z,80.04
2023-03-27T00:54:13.336Z,80.50
2023-03-27T00:55:13.415Z,79.66
2023-03-27T00:56:13.585Z,79.89
2023-03-27T00:57:13.755Z,78.77
2023-03-27T00:58:13.760Z,77.32
2023-03-27T00:59:13.871Z,78.91
2023-03-27T01:00:14.008Z,78.47
2023-03-27T01:01:14.132Z,78.77
2023-03-27T01:02:14.288Z,79.06
2023-03-27T01:03:14.434Z,79.36
2023-03-27T01:04:14.513Z,78.54
2023-03-27T01:05:14.559Z,77.96
2023-03-27T01:06:14.694Z,78.04
2023-03-27T01:07:14.865Z,77.53
2023-03-27T01:08:14.913Z,76.89
2023-03-27T01:09:20.553Z,76.26
2023-03-27T01:10:16.124Z,77.03
2023-03-27T01:11:15.307Z,77.10
2023-03-27T01:12:15.384Z,76.13
2023-03-27T01:13:15.444Z,76.47
2023-03-27T01:14:15.587Z,77.18
2023-03-27T01:15:15.716Z,76.82
2023-03-27T01:16:15.887Z,77.67
2023-03-27T01:17:15.926Z,76.89
2023-03-27T01:18:15.998Z,77.67
2023-03-27T01:19:16.237Z,78.47
2023-03-27T01:20:16.218Z,77.39
2023-03-27T01:21:16.320Z,76.96
2023-03-27T01:22:16.493Z,75.71
2023-03-27T01:23:16.585Z,75.24
2023-03-27T01:24:17.673Z,75.38
2023-03-27T01:25:16.828Z,75.17
2023-03-27T01:26:16.958Z,76.61
2023-03-27T01:27:18.030Z,75.99
2023-03-27T01:28:17.216Z,75.17
2023-03-27T01:29:17.345Z,75.44
2023-03-27T01:30:17.479Z,76.33
2023-03-27T01:31:17.720Z,78.11
2023-03-27T01:32:17.692Z,75.85
2023-03-27T01:33:17.818Z,74.71
2023-03-27T01:34:17.942Z,75.24
2023-03-27T01:35:18.065Z,76.20
2023-03-27T01:36:18.162Z,77.03
2023-03-27T01:37:18.296Z,77.03
2023-03-27T01:38:18.444Z,76.26
2023-03-27T01:39:18.494Z,76.89
2023-03-27T01:40:18.610Z,76.68
2023-03-27T01:41:18.749Z,76.75
2023-03-27T01:42:18.834Z,77.82
2023-03-27T01:43:18.982Z,77.75
2023-03-27T01:44:19.087Z,76.89
2023-03-27T01:45:19.191Z,75.85
2023-03-27T01:46:19.362Z,77.03
2023-03-27T01:47:19.432Z,75.38
2023-03-27T01:48:19.555Z,75.92
2023-03-27T01:49:19.704Z,77.03
2023-03-27T01:50:19.802Z,78.32
2023-03-27T01:51:20.008Z,78.47
2023-03-27T01:52:20.026Z,78.77
2023-03-27T01:53:20.156Z,76.33
2023-03-27T01:54:20.263Z,77.39
2023-03-27T01:55:20.400Z,77.60
2023-03-27T01:56:20.573Z,76.68
2023-03-27T01:57:20.633Z,76.89
2023-03-27T01:58:20.777Z,77.53
2023-03-27T01:59:20.899Z,76.96
2023-03-27T02:00:20.989Z,76.82
2023-03-27T02:01:21.222Z,77.89
2023-03-27T02:02:21.215Z,78.32
2023-03-27T02:03:21.350Z,77.25
2023-03-27T02:04:21.451Z,76.75
2023-03-27T02:05:21.567Z,77.46
2023-03-27T02:06:21.719Z,78.32
2023-03-27T02:07:21.789Z,78.84
2023-03-27T02:08:21.876Z,77.53
2023-03-27T02:09:22.037Z,78.18
2023-03-27T02:10:22.114Z,78.77
2023-03-27T02:11:22.375Z,77.96
2023-03-27T02:12:22.377Z,77.46
2023-03-27T02:13:22.447Z,77.82
2023-03-27T02:14:22.612Z,78.32
2023-03-27T02:15:25.226Z,79.51
2023-03-27T02:16:22.847Z,79.96
2023-03-27T02:17:22.908Z,79.81
2023-03-27T02:18:23.038Z,79.59
2023-03-27T02:19:23.219Z,79.81
2023-03-27T02:20:23.325Z,80.35
2023-03-27T02:21:23.425Z,79.74
2023-03-27T02:22:37.841Z,80.73
2023-03-27T02:23:24.672Z,81.28
2023-03-27T02:24:23.846Z,80.19
2023-03-27T02:25:23.948Z,80.27
2023-03-27T02:26:24.081Z,81.12
2023-03-27T02:27:24.223Z,80.89
2023-03-27T02:28:24.337Z,81.51
2023-03-27T02:29:24.473Z,81.12
2023-03-27T02:30:24.630Z,81.04
2023-03-27T02:31:32.334Z,82.31
2023-03-27T02:32:25.908Z,81.99
2023-03-27T02:33:24.996Z,83.29
2023-03-27T02:34:25.090Z,82.56
2023-03-27T02:35:25.199Z,82.23
2023-03-27T02:36:25.367Z,82.39
2023-03-27T02:37:33.031Z,81.60
2023-03-27T02:38:26.592Z,81.75
2023-03-27T02:39:25.690Z,82.72
2023-03-27T02:40:25.861Z,82.23
2023-03-27T02:41:25.930Z,80.97
2023-03-27T02:42:26.119Z,80.65
2023-03-27T02:43:26.199Z,80.42
2023-03-27T02:44:26.346Z,79.21
2023-03-27T02:45:26.472Z,79.29
2023-03-27T02:46:26.681Z,78.77
2023-03-27T02:47:26.724Z,79.21
2023-03-27T02:48:26.847Z,80.04
2023-03-27T02:49:27.006Z,80.42
2023-03-27T02:50:27.121Z,80.81
2023-03-27T02:51:27.340Z,79.59
2023-03-27T02:52:27.389Z,79.66
2023-03-27T02:53:27.549Z,81.75
2023-03-27T02:54:27.649Z,82.07
2023-03-27T02:55:27.756Z,81.75
2023-03-27T02:56:27.840Z,79.21
2023-03-27T02:57:28.029Z,75.99
2023-03-27T02:58:28.074Z,76.68
2023-03-27T02:59:28.294Z,77.89
2023-03-27T03:00:28.381Z,78.47
2023-03-27T03:01:28.584Z,74.44
2023-03-27T03:02:28.802Z,77.03
2023-03-27T03:03:28.827Z,77.75
2023-03-27T03:04:28.901Z,79.74
2023-03-27T03:05:29.033Z,79.59
2023-03-27T03:06:29.137Z,79.14
2023-03-27T03:07:29.287Z,79.96
2023-03-27T03:08:29.498Z,78.91
2023-03-27T03:09:29.557Z,78.47
2023-03-27T03:10:29.693Z,77.32
2023-03-27T03:11:29.916Z,77.18
2023-03-27T03:12:29.979Z,76.33
2023-03-27T03:13:30.136Z,76.82
2023-03-27T03:14:30.247Z,76.33
2023-03-27T03:15:30.350Z,77.60
2023-03-27T03:16:30.603Z,79.06
2023-03-27T03:17:30.704Z,79.59
2023-03-27T03:18:30.869Z,80.58
2023-03-27T03:19:30.895Z,80.35
2023-03-27T03:20:31.041Z,80.27
2023-03-27T03:21:31.170Z,80.89
2023-03-27T03:22:31.349Z,81.12
2023-03-27T03:23:31.477Z,81.36
2023-03-27T03:24:31.577Z,79.06
2023-03-27T03:25:31.686Z,79.59
2023-03-27T03:26:31.827Z,80.12
2023-03-27T03:27:31.960Z,81.28
2023-03-27T03:28:32.105Z,81.67
2023-03-27T03:29:32.272Z,80.58
2023-03-27T03:30:32.388Z,81.36
2023-03-27T03:31:32.637Z,80.89
2023-03-27T03:32:32.695Z,80.89
2023-03-27T03:33:32.790Z,80.42
2023-03-27T03:34:32.912Z,79.74
2023-03-27T03:35:33.056Z,80.42
2023-03-27T03:36:33.136Z,80.97
2023-03-27T03:37:33.279Z,79.21
2023-03-27T03:38:38.101Z,79.21
2023-03-27T03:39:34.481Z,77.10
2023-03-27T03:40:33.688Z,76.89
2023-03-27T03:41:33.762Z,77.18
2023-03-27T03:42:33.871Z,78.91
2023-03-27T03:43:34.016Z,77.25
2023-03-27T03:44:34.152Z,76.20
2023-03-27T03:45:34.328Z,75.99
2023-03-27T03:46:34.556Z,76.68
2023-03-27T03:47:34.562Z,75.44
2023-03-27T03:48:34.694Z,75.38
2023-03-27T03:49:34.847Z,76.75
2023-03-27T03:50:35.054Z,76.61
2023-03-27T03:51:35.217Z,76.61
2023-03-27T03:52:35.221Z,75.31
2023-03-27T03:53:35.306Z,77.10
2023-03-27T03:54:35.498Z,76.06
2023-03-27T03:55:35.622Z,74.51
2023-03-27T03:56:35.737Z,75.31
2023-03-27T03:57:35.907Z,74.97
2023-03-27T03:58:35.952Z,74.44
2023-03-27T03:59:36.187Z,73.15
2023-03-27T04:00:36.259Z,73.46
2023-03-27T04:01:36.393Z,74.05
2023-03-27T04:02:36.548Z,74.90
2023-03-27T04:03:36.682Z,74.90
2023-03-27T04:04:36.726Z,73.79
2023-03-27T04:05:36.925Z,73.21
2023-03-27T04:06:41.723Z,74.64
2023-03-27T04:07:37.126Z,74.97
2023-03-27T04:08:37.304Z,74.77
2023-03-27T04:09:37.385Z,74.57
2023-03-27T04:10:37.564Z,73.79
2023-03-27T04:11:37.715Z,74.44
2023-03-27T04:12:37.813Z,73.15
2023-03-27T04:13:37.898Z,72.20
2023-03-27T04:14:38.004Z,72.33
2023-03-27T04:15:38.187Z,71.29
2023-03-27T04:16:38.328Z,71.04
2023-03-27T04:17:38.485Z,71.47
2023-03-27T04:18:38.649Z,72.64
2023-03-27T04:19:38.671Z,72.14
2023-03-27T04:20:38.809Z,72.45
2023-03-27T04:21:38.872Z,71.89
2023-03-27T04:22:39.010Z,70.98
2023-03-27T04:23:39.165Z,71.35
2023-03-27T04:24:39.317Z,71.89
2023-03-27T04:25:39.511Z,70.27
2023-03-27T04:26:39.629Z,69.40
2023-03-27T04:27:39.761Z,68.55
2023-03-27T04:28:39.900Z,68.55
2023-03-27T04:29:40.011Z,68.00
2023-03-27T04:30:40.091Z,68.89
2023-03-27T04:31:40.434Z,68.78
2023-03-27T04:32:40.453Z,66.86
2023-03-27T04:33:40.522Z,67.56
2023-03-27T04:34:40.669Z,68.72
2023-03-27T04:35:40.783Z,69.52
2023-03-27T04:36:40.854Z,70.04
2023-03-27T04:37:41.028Z,70.15
2023-03-27T04:38:41.131Z,70.04
2023-03-27T04:39:41.237Z,70.57
2023-03-27T04:40:41.394Z,69.98
2023-03-27T04:41:41.512Z,69.06
2023-03-27T04:42:41.686Z,69.46
2023-03-27T04:43:41.850Z,69.34
2023-03-27T04:44:41.868Z,68.27
2023-03-27T04:45:41.998Z,67.78
2023-03-27T04:46:42.180Z,67.34
2023-03-27T04:47:42.353Z,65.20
2023-03-27T04:48:42.429Z,65.56
2023-03-27T04:49:42.571Z,65.46
2023-03-27T04:50:42.666Z,65.00
2023-03-27T04:51:42.907Z,63.82
2023-03-27T04:52:42.979Z,64.85
2023-03-27T04:53:43.135Z,65.66
2023-03-27T04:54:43.225Z,65.87
2023-03-27T04:55:43.333Z,65.87
2023-03-27T04:56:43.511Z,66.07
2023-03-27T04:57:43.609Z,66.60
2023-03-27T04:58:43.693Z,65.92
2023-03-27T04:59:43.843Z,65.41
2023-03-27T05:00:44.035Z,66.07
2023-03-27T05:01:44.120Z,66.02
2023-03-27T05:02:44.298Z,65.71
2023-03-27T05:03:44.434Z,65.71
2023-03-27T05:04:44.499Z,65.30
2023-03-27T05:05:44.643Z,65.97
2023-03-27T05:06:45.003Z,66.33
2023-03-27T05:07:44.979Z,65.92
2023-03-27T05:08:45.071Z,63.91
2023-03-27T05:09:45.182Z,64.21
2023-03-27T05:10:45.324Z,64.90
2023-03-27T05:11:45.586Z,65.10
2023-03-27T05:12:45.593Z,65.25
2023-03-27T05:13:45.739Z,64.95
2023-03-27T05:14:45.863Z,64.95
2023-03-27T05:15:45.995Z,65.20
2023-03-27T05:16:46.400Z,64.06
2023-03-27T05:17:46.263Z,63.82
2023-03-27T05:18:46.407Z,63.72
2023-03-27T05:19:46.473Z,62.72
2023-03-27T05:20:46.621Z,61.85
2023-03-27T05:21:46.825Z,63.29
2023-03-27T05:22:46.847Z,63.62
2023-03-27T05:23:47.040Z,63.24
2023-03-27T05:24:47.094Z,63.62
2023-03-27T05:25:59.447Z,62.67
2023-03-27T05:26:48.386Z,62.67
2023-03-27T05:27:47.525Z,62.53
2023-03-27T05:28:47.738Z,61.44
2023-03-27T05:29:47.919Z,61.04
2023-03-27T05:30:47.977Z,61.66
2023-03-27T05:31:48.148Z,60.90
2023-03-27T05:32:48.252Z,61.17
2023-03-27T05:33:48.352Z,61.53
2023-03-27T05:34:48.456Z,61.21
2023-03-27T05:35:48.645Z,61.80
2023-03-27T05:36:48.742Z,61.57
2023-03-27T05:37:48.889Z,60.03
2023-03-27T05:38:49.001Z,59.40
2023-03-27T05:39:49.086Z,59.61
2023-03-27T05:40:49.245Z,60.64
2023-03-27T05:41:49.350Z,60.38
2023-03-27T05:42:49.551Z,59.91
2023-03-27T05:43:51.146Z,59.69
2023-03-27T05:44:49.741Z,59.57
2023-03-27T05:45:49.856Z,59.36
2023-03-27T05:46:50.046Z,59.40
2023-03-27T05:47:50.191Z,58.33
2023-03-27T05:48:50.252Z,58.82
2023-03-27T05:49:50.407Z,58.57
2023-03-27T05:50:50.523Z,59.44
2023-03-27T05:51:50.774Z,59.61
2023-03-27T05:52:50.801Z,59.52
2023-03-27T05:53:50.911Z,60.55
2023-03-27T05:54:51.058Z,60.60
2023-03-27T05:56:02.862Z,60.03
2023-03-27T05:56:52.398Z,60.16
2023-03-27T05:57:51.467Z,60.08
2023-03-27T05:58:51.559Z,60.47
2023-03-27T05:59:51.722Z,60.47
2023-03-27T06:00:51.826Z,60.51
2023-03-27T06:01:52.009Z,60.03
2023-03-27T06:02:52.211Z,60.51
2023-03-27T06:03:52.296Z,60.42
2023-03-27T06:04:52.407Z,61.08
2023-03-27T06:05:52.549Z,60.86
2023-03-27T06:06:52.635Z,60.51
2023-03-27T06:07:52.796Z,60.21
2023-03-27T06:08:52.953Z,60.38
2023-03-27T06:09:53.040Z,60.21
2023-03-27T06:10:53.178Z,59.91
2023-03-27T06:11:53.338Z,60.21
2023-03-27T06:12:53.431Z,59.82
2023-03-27T06:13:53.542Z,59.99
2023-03-27T06:14:53.732Z,59.82
2023-03-27T06:15:53.939Z,60.08
2023-03-27T06:16:53.957Z,60.47
2023-03-27T06:17:54.099Z,60.03
2023-03-27T06:18:54.217Z,59.74
2023-03-27T06:19:54.375Z,60.25
2023-03-27T06:20:54.672Z,59.36
2023-03-27T06:21:54.584Z,59.48
2023-03-27T06:22:54.747Z,59.95
2023-03-27T06:23:54.852Z,60.33
2023-03-27T06:24:55.279Z,60.25
2023-03-27T06:25:55.296Z,59.91
2023-03-27T06:26:55.257Z,59.69
2023-03-27T06:27:55.390Z,59.95
2023-03-27T06:28:55.585Z,59.95
2023-03-27T06:29:55.623Z,59.95
2023-03-27T06:30:55.728Z,59.15
2023-03-27T06:31:55.935Z,59.31
2023-03-27T06:32:56.134Z,59.78
2023-03-27T06:33:56.116Z,59.86
2023-03-27T06:34:56.262Z,59.78
2023-03-27T06:35:56.480Z,59.74
2023-03-27T06:36:56.474Z,59.99
2023-03-27T06:37:56.699Z,59.40
2023-03-27T06:38:56.720Z,59.99
2023-03-27T06:39:56.849Z,60.42
2023-03-27T06:40:57.258Z,60.25
2023-03-27T06:41:57.114Z,60.12
2023-03-27T06:42:57.299Z,59.99
2023-03-27T06:43:57.368Z,60.60
2023-03-27T06:44:57.528Z,60.64
2023-03-27T06:45:57.931Z,61.94
2023-03-27T06:46:57.864Z,61.57
2023-03-27T06:48:13.447Z,62.72
2023-03-27T06:48:59.045Z,62.91
2023-03-27T06:49:58.121Z,63.72
2023-03-27T06:50:58.510Z,64.45
2023-03-27T06:51:58.432Z,64.26
2023-03-27T06:52:58.521Z,64.26
2023-03-27T06:53:58.699Z,63.15
2023-03-27T06:54:58.846Z,62.91
2023-03-27T06:55:59.103Z,62.72
2023-03-27T06:56:59.098Z,63.43
2023-03-27T06:57:59.177Z,63.00
2023-03-27T06:58:59.375Z,62.91
2023-03-27T07:00:01.663Z,63.43
2023-03-27T07:00:59.589Z,63.48
2023-03-27T07:01:59.706Z,63.48
2023-03-27T07:02:59.855Z,62.77
2023-03-27T07:03:59.975Z,62.53
2023-03-27T07:05:04.877Z,64.01
2023-03-27T07:06:01.481Z,65.00
2023-03-27T07:07:00.353Z,64.75
2023-03-27T07:08:05.470Z,64.16
2023-03-27T07:09:01.635Z,63.48
2023-03-27T07:10:00.753Z,63.05
2023-03-27T07:11:11.527Z,64.11
2023-03-27T07:12:02.038Z,64.95
2023-03-27T07:13:01.147Z,63.96
2023-03-27T07:14:01.274Z,63.82
2023-03-27T07:15:01.418Z,64.70
2023-03-27T07:16:01.536Z,65.92
2023-03-27T07:17:01.620Z,67.13
2023-03-27T07:18:01.832Z,67.18
2023-03-27T07:19:02.517Z,67.61
2023-03-27T07:20:02.082Z,66.65
2023-03-27T07:21:02.149Z,66.54
2023-03-27T07:22:02.330Z,66.44
2023-03-27T07:23:02.452Z,67.34
2023-03-27T07:24:02.551Z,67.18
2023-03-27T07:25:02.663Z,66.13
2023-03-27T07:26:02.793Z,65.51
2023-03-27T07:27:02.902Z,65.92
2023-03-27T07:28:05.618Z,66.44
2023-03-27T07:29:03.232Z,66.28
2023-03-27T07:30:03.392Z,65.92
2023-03-27T07:31:03.999Z,66.02
2023-03-27T07:32:07.095Z,66.86
2023-03-27T07:33:04.935Z,66.13
2023-03-27T07:34:03.981Z,65.10
2023-03-27T07:35:03.960Z,64.50
2023-03-27T07:36:04.133Z,65.15
2023-03-27T07:37:04.258Z,66.39
2023-03-27T07:38:04.438Z,67.45
2023-03-27T07:39:04.573Z,67.02
2023-03-27T07:40:04.639Z,67.83
2023-03-27T07:41:04.798Z,67.89
2023-03-27T07:42:04.905Z,67.94
2023-03-27T07:43:05.012Z,67.72
2023-03-27T07:44:05.185Z,67.51
2023-03-27T07:45:05.266Z,68.83
2023-03-27T07:46:05.436Z,69.29
2023-03-27T07:47:05.514Z,67.72
2023-03-27T07:48:05.746Z,65.46
2023-03-27T07:49:05.900Z,66.18
2023-03-27T07:50:05.935Z,66.23
2023-03-27T07:52:06.819Z,67.34
2023-03-27T07:53:06.605Z,67.51
2023-03-27T07:54:06.534Z,68.16
2023-03-27T07:55:06.629Z,68.39
2023-03-27T07:56:06.779Z,68.27
2023-03-27T07:57:06.986Z,68.61
2023-03-27T07:58:07.299Z,67.67
2023-03-27T07:59:07.190Z,68.05
2023-03-27T08:00:07.318Z,67.83
2023-03-27T08:01:07.423Z,70.63
2023-03-27T08:02:07.555Z,71.71
2023-03-27T08:03:07.888Z,71.16
2023-03-27T08:04:07.917Z,71.22
2023-03-27T08:05:08.183Z,69.98
2023-03-27T08:06:08.074Z,70.57
2023-03-27T08:07:08.181Z,72.26
2023-03-27T08:08:08.308Z,73.85
2023-03-27T08:09:08.549Z,75.24
2023-03-27T08:10:08.527Z,74.84
2023-03-27T08:11:16.105Z,73.98
2023-03-27T08:12:09.950Z,75.31
2023-03-27T08:13:08.944Z,74.31
2023-03-27T08:14:09.145Z,74.05
2023-03-27T08:15:09.201Z,73.21
2023-03-27T08:16:09.403Z,73.02
2023-03-27T08:17:15.906Z,76.61
2023-03-27T08:18:10.629Z,80.19
2023-03-27T08:19:09.757Z,81.44
2023-03-27T08:20:09.857Z,83.13
2023-03-27T08:21:10.022Z,82.47
2023-03-27T08:22:10.168Z,81.28
2023-03-27T08:23:10.308Z,81.28
2023-03-27T08:24:10.433Z,79.89
2023-03-27T08:25:10.534Z,78.84
2023-03-27T08:26:10.711Z,79.66
2023-03-27T08:27:10.814Z,78.62
2023-03-27T08:28:11.015Z,78.04
2023-03-27T08:29:11.085Z,79.14
2023-03-27T08:30:11.222Z,79.21
2023-03-27T08:31:11.487Z,80.97
2023-03-27T08:32:12.000Z,80.50
2023-03-27T08:33:11.598Z,80.12
2023-03-27T08:34:11.707Z,79.06
2023-03-27T08:35:12.114Z,78.54
2023-03-27T08:36:12.079Z,77.60
2023-03-27T08:37:12.049Z,78.47
2023-03-27T08:38:23.694Z,81.20
2023-03-27T08:39:13.321Z,82.47
2023-03-27T08:40:12.595Z,82.64
2023-03-27T08:41:12.620Z,83.54
2023-03-27T08:42:12.813Z,82.23
2023-03-27T08:43:12.896Z,81.44
2023-03-27T08:44:13.275Z,82.56
2023-03-27T08:45:13.148Z,84.63
2023-03-27T08:46:13.371Z,83.29
2023-03-27T08:47:13.368Z,81.51
2023-03-27T08:48:13.526Z,81.36
2023-03-27T08:49:13.601Z,81.04
2023-03-27T08:50:13.764Z,86.20
2023-03-27T08:51:13.904Z,88.19
2023-03-27T08:52:14.088Z,87.63
2023-03-27T08:53:14.123Z,90.85
2023-03-27T08:54:14.306Z,92.45
2023-03-27T08:55:16.172Z,95.07
2023-03-27T08:56:14.571Z,97.75
2023-03-27T08:57:14.709Z,104.10
2023-03-27T08:58:14.791Z,105.87
2023-03-27T08:59:17.229Z,107.50
2023-03-27T09:00:15.236Z,105.41
2023-03-27T09:01:15.251Z,104.04
2023-03-27T09:02:15.341Z,104.88
2023-03-27T09:03:15.804Z,107.70
2023-03-27T09:04:15.496Z,112.23
2023-03-27T09:05:15.619Z,113.98
2023-03-27T09:06:15.888Z,110.39
2023-03-27T09:07:15.841Z,113.37
2023-03-27T09:08:15.933Z,113.44
2023-03-27T09:09:16.119Z,112.46
2023-03-27T09:10:16.227Z,115.55
2023-03-27T09:11:16.375Z,112.53
2023-03-27T09:12:17.103Z,108.19
2023-03-27T09:13:16.635Z,117.24
2023-03-27T09:14:16.773Z,119.75
2023-03-27T09:15:16.798Z,120.26
2023-03-27T09:16:17.058Z,123.26
2023-03-27T09:17:17.046Z,123.26
2023-03-27T09:18:17.248Z,126.89
2023-03-27T09:19:17.345Z,124.72
2023-03-27T09:20:17.594Z,124.17
2023-03-27T09:21:17.728Z,121.04
2023-03-27T09:22:17.740Z,120.87
2023-03-27T09:23:20.476Z,119.24
2023-03-27T09:24:17.911Z,119.58
2023-03-27T09:25:18.060Z,119.41
2023-03-27T09:26:18.160Z,115.15
2023-03-27T09:27:18.361Z,116.67
2023-03-27T09:28:18.460Z,113.60
2023-03-27T09:29:20.167Z,112.61
2023-03-27T09:30:18.760Z,113.06
2023-03-27T09:31:18.863Z,113.75
2023-03-27T09:32:18.972Z,117.65
2023-03-27T09:33:19.109Z,117.32
2023-03-27T09:34:19.161Z,119.49
2023-03-27T09:35:19.365Z,122.63
2023-03-27T09:36:19.445Z,120.87
2023-03-27T09:37:19.627Z,119.24
2023-03-27T09:38:19.703Z,117.32
2023-03-27T09:39:19.854Z,118.90
2023-03-27T09:40:19.962Z,114.68
2023-03-27T09:41:20.103Z,113.75
2023-03-27T09:42:20.268Z,112.46
2023-03-27T09:43:22.285Z,113.44
2023-03-27T09:44:20.423Z,112.31
2023-03-27T09:45:20.604Z,111.41
2023-03-27T09:46:20.730Z,112.83
2023-03-27T09:47:20.916Z,109.67
2023-03-27T09:48:21.032Z,111.19
2023-03-27T09:49:21.148Z,115.15
2023-03-27T09:50:21.267Z,113.29
2023-03-27T09:51:21.403Z,111.86
2023-03-27T09:52:21.587Z,111.71
2023-03-27T09:53:21.695Z,116.59
2023-03-27T09:54:21.804Z,121.39
2023-03-27T09:55:21.930Z,123.17
2023-03-27T09:56:22.040Z,122.63
2023-03-27T09:57:22.215Z,117.90
2023-03-27T09:58:22.597Z,123.35
2023-03-27T09:59:22.481Z,122.36
2023-03-27T10:00:22.560Z,121.30
2023-03-27T10:01:23.036Z,122.36
2023-03-27T10:02:22.757Z,121.83
2023-03-27T10:03:23.014Z,120.09
2023-03-27T10:04:23.172Z,119.92
2023-03-27T10:05:23.141Z,117.08
2023-03-27T10:06:23.275Z,116.43
2023-03-27T10:07:23.517Z,116.03
2023-03-27T10:08:25.332Z,115.39
2023-03-27T10:09:23.662Z,112.68
2023-03-27T10:10:23.768Z,110.10
2023-03-27T10:11:23.908Z,113.52
2023-03-27T10:12:24.074Z,116.03
2023-03-27T10:13:24.178Z,115.71
2023-03-27T10:14:24.322Z,118.15
2023-03-27T10:15:24.425Z,114.45
2023-03-27T10:16:24.597Z,117.32
2023-03-27T10:17:24.674Z,115.39
2023-03-27T10:18:24.787Z,111.56
2023-03-27T10:19:24.904Z,109.89
2023-03-27T10:20:24.992Z,106.47
2023-03-27T10:21:25.120Z,110.83
2023-03-27T10:22:25.283Z,112.53
2023-03-27T10:23:25.469Z,112.83
2023-03-27T10:24:25.520Z,112.91
2023-03-27T10:25:25.635Z,112.31
2023-03-27T10:26:25.733Z,108.82
2023-03-27T10:27:25.936Z,107.98
2023-03-27T10:28:26.079Z,107.08
2023-03-27T10:29:26.208Z,109.17
2023-03-27T10:30:26.271Z,106.54
2023-03-27T10:31:26.496Z,106.41
2023-03-27T10:32:28.332Z,103.84
2023-03-27T10:33:26.639Z,102.64
2023-03-27T10:34:26.790Z,100.31
2023-03-27T10:35:26.969Z,103.21
2023-03-27T10:36:26.989Z,97.97
2023-03-27T10:37:27.123Z,92.76
2023-03-27T10:38:27.374Z,90.76
2023-03-27T10:39:27.448Z,84.29
2023-03-27T10:40:27.545Z,82.96
2023-03-27T10:41:28.804Z,83.96
2023-03-27T10:42:27.778Z,87.18
2023-03-27T10:43:27.935Z,87.63
2023-03-27T10:44:28.060Z,90.17
2023-03-27T10:45:28.165Z,93.90
2023-03-27T10:46:28.345Z,93.90
2023-03-27T10:47:28.484Z,92.86
2023-03-27T10:48:28.517Z,92.86
2023-03-27T10:49:28.689Z,93.38
2023-03-27T10:50:28.850Z,94.24
2023-03-27T10:51:39.358Z,94.99
2023-03-27T10:52:30.143Z,94.40
2023-03-27T10:53:29.268Z,95.18
2023-03-27T10:54:31.356Z,95.07
2023-03-27T10:55:29.428Z,92.25
2023-03-27T10:56:29.620Z,91.55
2023-03-27T10:57:29.747Z,91.25
2023-03-27T10:58:30.033Z,91.75
2023-03-27T10:59:40.899Z,92.86
2023-03-27T11:00:31.124Z,89.88
2023-03-27T11:01:30.342Z,89.88
2023-03-27T11:02:30.412Z,87.36
2023-03-27T11:03:30.551Z,89.69
2023-03-27T11:04:30.660Z,89.31
2023-03-27T11:05:30.804Z,90.76
2023-03-27T11:06:30.947Z,88.74
2023-03-27T11:07:30.986Z,87.63
2023-03-27T11:08:31.130Z,89.12
2023-03-27T11:09:31.273Z,89.88
2023-03-27T11:10:31.413Z,90.37
2023-03-27T11:11:31.684Z,93.27
2023-03-27T11:12:33.439Z,88.37
2023-03-27T11:13:31.760Z,84.38
2023-03-27T11:14:31.904Z,83.05
2023-03-27T11:15:32.096Z,87.00
2023-03-27T11:16:32.270Z,84.46
2023-03-27T11:17:32.369Z,78.40
2023-03-27T11:18:32.575Z,81.83
2023-03-27T11:19:34.854Z,88.74
2023-03-27T11:20:32.717Z,90.27
2023-03-27T11:21:32.862Z,87.91
2023-03-27T11:22:33.170Z,80.12
2023-03-27T11:23:33.154Z,80.42
2023-03-27T11:24:33.280Z,80.73
2023-03-27T11:25:34.919Z,82.80
2023-03-27T11:26:33.523Z,85.15
2023-03-27T11:27:33.661Z,86.82
2023-03-27T11:28:33.756Z,91.15
2023-03-27T11:29:33.912Z,90.56
2023-03-27T11:30:34.020Z,86.37
2023-03-27T11:31:34.203Z,79.51
2023-03-27T11:32:34.384Z,70.75
2023-03-27T11:33:34.383Z,68.33
2023-03-27T11:34:34.512Z,66.39
2023-03-27T11:35:34.678Z,63.43
2023-03-27T11:36:34.751Z,58.57
2023-03-27T11:37:34.872Z,56.56
2023-03-27T11:38:35.083Z,53.98
2023-03-27T11:39:35.187Z,52.08
2023-03-27T11:40:35.302Z,52.89
2023-03-27T11:41:35.481Z,51.88
2023-03-27T11:42:35.596Z,50.42
2023-03-27T11:43:35.793Z,49.15
2023-03-27T11:44:35.822Z,48.72
2023-03-27T11:45:35.929Z,48.17
2023-03-27T11:46:36.100Z,49.30
2023-03-27T11:47:36.207Z,53.91
2023-03-27T11:48:36.365Z,55.55
2023-03-27T11:49:36.428Z,55.70
2023-03-27T11:50:36.561Z,57.25
2023-03-27T11:51:36.670Z,58.00
2023-03-27T11:52:37.888Z,58.78
2023-03-27T11:53:36.968Z,56.87
2023-03-27T11:54:37.136Z,57.33
2023-03-27T11:55:37.271Z,55.77
2023-03-27T11:56:37.404Z,52.56
2023-03-27T11:57:37.491Z,50.57
2023-03-27T11:58:37.831Z,52.40
2023-03-27T11:59:37.787Z,53.74
2023-03-27T12:00:37.899Z,56.52
2023-03-27T12:01:38.106Z,58.94
2023-03-27T12:02:38.233Z,58.90
2023-03-27T12:03:38.355Z,58.08
2023-03-27T12:04:38.400Z,54.15
2023-03-27T12:05:38.563Z,52.33
2023-03-27T12:06:38.646Z,54.44
2023-03-27T12:07:40.604Z,56.03
2023-03-27T12:08:39.966Z,55.92
2023-03-27T12:09:39.125Z,57.88
2023-03-27T12:10:39.283Z,59.74
2023-03-27T12:11:39.320Z,62.96
2023-03-27T12:12:39.496Z,67.51
2023-03-27T12:13:42.523Z,71.35
2023-03-27T12:14:41.115Z,72.02
2023-03-27T12:15:39.843Z,68.44
2023-03-27T12:16:40.012Z,67.61
2023-03-27T12:17:40.249Z,68.27
2023-03-27T12:19:40.412Z,68.27
2023-03-27T12:20:51.873Z,71.71
2023-03-27T12:21:41.662Z,73.66
2023-03-27T12:22:40.807Z,75.38
2023-03-27T12:23:40.932Z,78.77
2023-03-27T12:24:53.426Z,80.19
2023-03-27T12:25:42.193Z,84.89
2023-03-27T12:26:41.329Z,89.88
2023-03-27T12:27:41.443Z,92.35
2023-03-27T12:28:41.546Z,93.69
2023-03-27T12:29:41.763Z,95.39
2023-03-27T12:30:41.814Z,92.66
2023-03-27T12:31:41.997Z,90.66
2023-03-27T12:32:42.208Z,91.25
2023-03-27T12:33:42.224Z,88.28
2023-03-27T12:34:42.337Z,89.50
2023-03-27T12:35:42.458Z,87.09
2023-03-27T12:36:42.577Z,94.85
2023-03-27T12:37:42.702Z,99.54
2023-03-27T12:38:42.845Z,98.84
2023-03-27T12:39:42.981Z,102.02
2023-03-27T12:40:43.093Z,106.68
2023-03-27T12:41:43.218Z,106.95
2023-03-27T12:42:43.674Z,109.39
2023-03-27T12:43:43.464Z,111.64
2023-03-27T12:44:43.604Z,113.29
2023-03-27T12:45:51.091Z,112.23
2023-03-27T12:46:44.905Z,109.96
2023-03-27T12:47:44.005Z,112.16
2023-03-27T12:48:44.102Z,114.29
2023-03-27T12:49:48.135Z,110.39
2023-03-27T12:50:44.388Z,109.53
2023-03-27T12:51:44.624Z,110.03
2023-03-27T12:52:44.671Z,114.29